Time;durP1;ratioP1;P1;durP2;ratioP2;P2;SDS_P1;SDS_P2;PMS_P1;PMS_P2;Temp;Humidity;BMP_temperature;BMP_pressure;BME280_temperature;BME280_humidity;BME280_pressure;Samples;Min_cycle;Max_cycle;Signal;HPM_P1;HPM_P2
2021/05/05 00:01:16;;;;;;;3.40;2.60;;;13.60;49.00;;;;;;5090752;28;20189;-71
2021/05/05 00:03:47;;;;;;;3.40;2.50;;;13.60;49.00;;;;;;5087860;28;20201;-71
2021/05/05 00:06:16;;;;;;;5.40;3.70;;;13.60;49.00;;;;;;5073446;28;20432;-71
2021/05/05 00:08:43;;;;;;;3.22;2.65;;;13.60;49.00;;;;;;5077463;28;20284;-71
2021/05/05 00:11:11;;;;;;;3.55;2.75;;;13.50;48.90;;;;;;5076442;28;20725;-71
2021/05/05 00:13:38;;;;;;;3.20;2.60;;;13.60;49.00;;;;;;5076026;28;20258;-72
2021/05/05 00:16:08;;;;;;;4.85;3.40;;;13.50;48.70;;;;;;5093431;28;20276;-71
2021/05/05 00:18:36;;;;;;;3.75;2.85;;;13.40;48.90;;;;;;5082115;28;20186;-71
2021/05/05 00:21:03;;;;;;;3.15;2.45;;;13.40;49.10;;;;;;5073166;28;20565;-71
2021/05/05 00:23:30;;;;;;;4.18;3.20;;;13.40;49.30;;;;;;5074346;28;20235;-71
2021/05/05 00:25:56;;;;;;;2.97;2.40;;;13.30;49.00;;;;;;5073035;28;20193;-71
2021/05/05 00:28:23;;;;;;;3.40;2.80;;;13.40;49.10;;;;;;5080179;28;20250;-72
2021/05/05 00:30:50;;;;;;;3.35;2.78;;;13.30;48.80;;;;;;5092859;28;20647;-71
2021/05/05 00:33:17;;;;;;;7.22;2.80;;;13.30;48.90;;;;;;5086097;28;20209;-71
2021/05/05 00:35:44;;;;;;;5.30;2.92;;;13.20;49.00;;;;;;5072904;28;20193;-72
2021/05/05 00:38:11;;;;;;;3.38;2.58;;;13.20;49.30;;;;;;5077610;28;20184;-71
2021/05/05 00:40:38;;;;;;;4.05;2.53;;;13.20;49.10;;;;;;5093082;28;20596;-72
2021/05/05 00:43:11;;;;;;;3.35;2.50;;;13.20;49.30;;;;;;5088022;28;20200;-71
2021/05/05 00:45:38;;;;;;;4.22;2.97;;;13.20;49.10;;;;;;5072537;28;20185;-72
2021/05/05 00:48:08;;;;;;;3.13;2.20;;;13.20;48.90;;;;;;5075668;28;20185;-71
2021/05/05 00:50:36;;;;;;;3.67;3.20;;;13.10;49.30;;;;;;5092795;28;20196;-71
2021/05/05 00:53:09;;;;;;;3.40;2.80;;;13.10;49.40;;;;;;5086537;28;20590;-72
2021/05/05 00:55:36;;;;;;;2.95;2.65;;;13.10;49.40;;;;;;5092898;28;20254;-71
2021/05/05 00:58:02;;;;;;;4.88;3.10;;;13.10;49.40;;;;;;5084114;28;20274;-71
2021/05/05 01:00:29;;;;;;;2.90;2.42;;;13.20;49.40;;;;;;5092972;28;20756;-71
2021/05/05 01:02:56;;;;;;;4.03;2.55;;;13.20;49.00;;;;;;5081798;28;20211;-71
2021/05/05 01:05:27;;;;;;;4.85;2.85;;;13.20;48.40;;;;;;5072317;28;20270;-71
2021/05/05 01:07:54;;;;;;;4.30;2.47;;;13.20;48.60;;;;;;5081225;28;20640;-71
2021/05/05 01:10:21;;;;;;;3.97;2.92;;;13.20;48.60;;;;;;5092494;28;20193;-71
2021/05/05 01:12:54;;;;;;;3.40;2.80;;;13.20;48.80;;;;;;5090219;28;20615;-71
2021/05/05 01:15:20;;;;;;;4.93;3.00;;;13.10;49.20;;;;;;5088734;28;20188;-71
2021/05/05 01:17:47;;;;;;;3.20;2.33;;;13.10;49.90;;;;;;5092433;28;20196;-71
2021/05/05 01:20:14;;;;;;;4.78;3.47;;;13.10;49.10;;;;;;5078018;28;20192;-72
2021/05/05 01:22:42;;;;;;;4.70;2.75;;;13.00;49.40;;;;;;5083606;28;20200;-71
2021/05/05 01:25:13;;;;;;;4.38;2.40;;;13.00;49.30;;;;;;5087657;28;20189;-71
2021/05/05 01:27:43;;;;;;;3.58;2.42;;;13.00;49.40;;;;;;5072445;28;20232;-71
2021/05/05 01:30:12;;;;;;;4.25;2.20;;;12.90;49.60;;;;;;5075217;28;20213;-71
2021/05/05 01:32:39;;;;;;;2.72;2.00;;;12.80;49.80;;;;;;5080766;28;20747;-71
2021/05/05 01:35:09;;;;;;;3.67;2.50;;;12.70;49.80;;;;;;5074409;28;20197;-71
2021/05/05 01:37:36;;;;;;;3.40;2.80;;;12.60;49.90;;;;;;5092618;28;20196;-71
2021/05/05 01:40:06;;;;;;;3.40;2.65;;;12.60;50.30;;;;;;5090150;28;20201;-71
2021/05/05 01:42:34;;;;;;;3.75;2.88;;;12.60;50.20;;;;;;5081645;28;20220;-72
2021/05/05 01:45:01;;;;;;;2.80;2.25;;;12.60;50.10;;;;;;5091086;28;20619;-71
2021/05/05 01:47:27;;;;;;;3.50;2.58;;;12.60;50.10;;;;;;5072114;28;20198;-71
2021/05/05 01:49:54;;;;;;;3.63;2.60;;;12.60;50.50;;;;;;5071928;28;20194;-71
2021/05/05 01:52:22;;;;;;;4.28;2.80;;;12.60;50.30;;;;;;5073993;28;20296;-71
2021/05/05 01:54:48;;;;;;;3.20;2.60;;;12.50;50.70;;;;;;5072014;28;20190;-71
2021/05/05 01:57:31;;;;;;;4.15;2.53;;;12.50;50.60;;;;;;5089704;28;20221;-71
2021/05/05 02:00:00;;;;;;;4.40;3.22;;;12.50;50.80;;;;;;5079404;28;20189;-72
2021/05/05 02:02:28;;;;;;;3.80;3.03;;;12.40;50.70;;;;;;5087961;28;20272;-71
2021/05/05 02:04:56;;;;;;;3.33;2.40;;;12.50;50.80;;;;;;5095937;28;20193;-71
2021/05/05 02:07:23;;;;;;;3.55;3.25;;;12.50;50.90;;;;;;5083774;28;20248;-71
2021/05/05 02:09:50;;;;;;;3.10;2.38;;;12.50;51.20;;;;;;5075211;28;20243;-71
2021/05/05 02:12:17;;;;;;;5.30;2.40;;;12.50;51.60;;;;;;5081676;28;20181;-71
2021/05/05 02:14:46;;;;;;;3.70;2.40;;;12.50;51.50;;;;;;5080142;28;20186;-71
2021/05/05 02:17:13;;;;;;;5.25;3.35;;;12.50;51.50;;;;;;5085270;28;20185;-70
2021/05/05 02:19:45;;;;;;;3.35;2.30;;;12.40;51.50;;;;;;5095521;28;20279;-71
2021/05/05 02:22:12;;;;;;;5.90;3.15;;;12.30;52.10;;;;;;5085568;28;20190;-70
2021/05/05 02:24:40;;;;;;;3.70;3.20;;;12.30;52.40;;;;;;5075419;28;20193;-71
2021/05/05 02:27:08;;;;;;;3.13;2.55;;;12.20;52.30;;;;;;5083151;28;20683;-71
2021/05/05 02:29:35;;;;;;;5.20;3.03;;;12.10;52.60;;;;;;5095404;28;20197;-71
2021/05/05 02:32:08;;;;;;;5.03;3.75;;;12.10;53.00;;;;;;5085636;28;20185;-71
2021/05/05 02:34:40;;;;;;;6.63;4.20;;;12.00;53.40;;;;;;5095089;28;20196;-71
2021/05/05 02:37:10;;;;;;;6.00;3.90;;;11.90;53.60;;;;;;5077604;28;20189;-71
2021/05/05 02:39:38;;;;;;;9.15;4.70;;;11.90;54.00;;;;;;5074962;28;20200;-71
2021/05/05 02:42:05;;;;;;;10.73;4.47;;;11.90;54.30;;;;;;5090860;28;20185;-70
2021/05/05 02:44:32;;;;;;;5.63;3.30;;;11.80;54.40;;;;;;5085477;28;20200;-71
2021/05/05 02:47:05;;;;;;;7.13;4.13;;;11.90;54.50;;;;;;5074765;28;20198;-70
2021/05/05 02:49:34;;;;;;;8.98;4.63;;;11.90;54.40;;;;;;5083843;28;20566;-71
2021/05/05 02:52:01;;;;;;;7.97;4.35;;;11.90;55.20;;;;;;5095056;28;20192;-71
2021/05/05 02:54:29;;;;;;;3.90;2.83;;;11.90;55.80;;;;;;5086318;28;20320;-71
2021/05/05 02:56:56;;;;;;;4.22;3.22;;;11.90;55.40;;;;;;5086005;28;20690;-71
2021/05/05 02:59:24;;;;;;;7.93;3.78;;;11.90;55.50;;;;;;5087899;28;20182;-70
2021/05/05 03:01:51;;;;;;;5.10;3.90;;;11.80;55.90;;;;;;5074499;28;20278;-70
2021/05/05 03:04:19;;;;;;;6.93;5.00;;;11.80;56.00;;;;;;5079346;28;20188;-71
2021/05/05 03:06:46;;;;;;;6.03;4.90;;;11.70;56.00;;;;;;5094921;28;20246;-70
2021/05/05 03:09:20;;;;;;;6.40;4.82;;;11.70;56.10;;;;;;5081190;28;20190;-71
2021/05/05 03:11:47;;;;;;;5.85;4.57;;;11.60;56.40;;;;;;5074024;28;20284;-71
2021/05/05 03:14:14;;;;;;;4.90;4.32;;;11.60;56.50;;;;;;5085652;28;20220;-71
2021/05/05 03:16:40;;;;;;;4.65;4.03;;;11.60;56.40;;;;;;5094524;28;20191;-71
2021/05/05 03:19:07;;;;;;;4.53;4.03;;;11.60;56.40;;;;;;5084062;28;20182;-72
2021/05/05 03:21:39;;;;;;;4.65;3.65;;;11.70;56.60;;;;;;5091285;28;20575;-71
2021/05/05 03:24:07;;;;;;;23.20;12.07;;;11.70;56.70;;;;;;5084471;28;20548;-71
2021/05/05 03:26:42;;;;;;;24.55;11.70;;;11.70;56.30;;;;;;5074059;28;20189;-71
2021/05/05 03:29:09;;;;;;;39.92;20.27;;;11.70;56.60;;;;;;5083112;28;20195;-71
2021/05/05 03:31:36;;;;;;;30.90;15.15;;;11.70;56.60;;;;;;5093177;28;20699;-71
2021/05/05 03:34:04;;;;;;;32.65;16.40;;;11.70;56.60;;;;;;5073637;28;20256;-71
2021/05/05 03:36:31;;;;;;;23.20;10.70;;;11.70;56.70;;;;;;5073798;28;20632;-72
2021/05/05 03:39:00;;;;;;;29.13;12.98;;;11.80;57.10;;;;;;5091230;28;20571;-71
2021/05/05 03:41:27;;;;;;;24.67;12.55;;;11.80;57.30;;;;;;5094031;28;20189;-70
2021/05/05 03:43:56;;;;;;;16.83;10.00;;;11.80;57.50;;;;;;5075493;28;20193;-70
2021/05/05 03:46:23;;;;;;;24.58;10.55;;;11.90;57.50;;;;;;5073486;28;20208;-70
2021/05/05 03:48:50;;;;;;;9.38;5.88;;;11.90;57.40;;;;;;5088514;28;20189;-71
2021/05/05 03:51:17;;;;;;;10.52;6.05;;;11.90;57.40;;;;;;5073685;28;20243;-71
2021/05/05 03:53:44;;;;;;;7.38;4.95;;;11.90;57.40;;;;;;5088786;28;20760;-71
2021/05/05 03:56:13;;;;;;;5.90;4.43;;;11.90;57.60;;;;;;5093541;28;20193;-71
2021/05/05 03:58:42;;;;;;;6.47;4.60;;;11.90;58.00;;;;;;5077834;28;20197;-71
2021/05/05 04:01:09;;;;;;;7.40;5.80;;;11.90;57.70;;;;;;5077506;28;20187;-71
2021/05/05 04:03:35;;;;;;;14.05;5.47;;;11.90;57.20;;;;;;5093848;28;20556;-71
2021/05/05 04:06:02;;;;;;;5.75;4.95;;;11.80;57.10;;;;;;5090834;28;20285;-71
2021/05/05 04:08:29;;;;;;;6.60;4.55;;;11.90;57.60;;;;;;5073640;28;20236;-71
2021/05/05 04:10:56;;;;;;;3.72;3.33;;;11.90;57.50;;;;;;5074026;28;20229;-71
2021/05/05 04:13:25;;;;;;;5.30;4.75;;;12.00;57.10;;;;;;5088234;28;20557;-71
2021/05/05 04:15:52;;;;;;;8.20;5.78;;;12.00;56.80;;;;;;5072776;28;20194;-72
2021/05/05 04:18:19;;;;;;;6.32;5.55;;;12.00;57.60;;;;;;5093458;28;20651;-71
2021/05/05 04:20:46;;;;;;;7.40;5.70;;;12.00;57.20;;;;;;5093364;28;20242;-70
2021/05/05 04:23:12;;;;;;;4.72;3.88;;;12.00;58.00;;;;;;5074058;28;20186;-71
2021/05/05 04:25:48;;;;;;;6.15;5.03;;;12.00;58.30;;;;;;5077610;28;20535;-71
2021/05/05 04:28:15;;;;;;;6.47;4.45;;;12.00;57.70;;;;;;5093478;28;20200;-71
2021/05/05 04:30:44;;;;;;;5.97;4.90;;;12.10;58.00;;;;;;5088684;28;20563;-71
2021/05/05 04:33:12;;;;;;;6.97;6.10;;;12.10;58.20;;;;;;5072920;28;20238;-72
2021/05/05 04:35:39;;;;;;;7.90;7.00;;;12.10;58.60;;;;;;5073798;28;20188;-72
2021/05/05 04:38:06;;;;;;;7.03;5.30;;;12.20;59.10;;;;;;5080939;28;20189;-71
2021/05/05 04:40:33;;;;;;;8.63;6.63;;;12.20;59.30;;;;;;5090911;28;20185;-71
2021/05/05 04:43:00;;;;;;;9.15;6.45;;;12.20;58.90;;;;;;5093274;28;20216;-71
2021/05/05 04:45:27;;;;;;;8.82;6.93;;;12.30;58.60;;;;;;5075376;28;20192;-71
2021/05/05 04:47:54;;;;;;;9.77;7.55;;;12.30;58.50;;;;;;5072607;28;20194;-71
2021/05/05 04:50:21;;;;;;;8.43;6.10;;;12.30;58.40;;;;;;5087983;28;20193;-71
2021/05/05 04:52:52;;;;;;;6.03;4.57;;;12.40;58.50;;;;;;5092852;28;20212;-71
2021/05/05 04:55:22;;;;;;;8.70;4.85;;;12.40;58.00;;;;;;5077529;28;20239;-71
2021/05/05 04:57:49;;;;;;;4.45;3.17;;;12.40;58.30;;;;;;5072380;28;20217;-72
2021/05/05 05:00:17;;;;;;;6.25;3.55;;;12.40;58.40;;;;;;5085676;28;20185;-71
2021/05/05 05:02:44;;;;;;;4.65;4.25;;;12.40;58.60;;;;;;5092758;28;20555;-71
2021/05/05 05:05:15;;;;;;;4.50;3.25;;;12.40;58.40;;;;;;5080226;28;20580;-71
2021/05/05 05:07:41;;;;;;;3.83;2.88;;;12.40;58.40;;;;;;5090040;28;20264;-72
2021/05/05 05:10:10;;;;;;;3.60;2.78;;;12.50;58.60;;;;;;5092754;28;20189;-71
2021/05/05 05:12:37;;;;;;;4.40;3.80;;;12.50;59.10;;;;;;5091757;28;20537;-72
2021/05/05 05:15:04;;;;;;;4.55;3.17;;;12.50;59.60;;;;;;5092884;28;20233;-71
2021/05/05 05:17:35;;;;;;;4.82;3.83;;;12.50;60.10;;;;;;5092493;28;20685;-71
2021/05/05 05:20:05;;;;;;;3.55;3.20;;;12.50;61.10;;;;;;5072689;28;20652;-71
2021/05/05 05:22:34;;;;;;;5.03;3.00;;;12.60;61.90;;;;;;5072499;28;20225;-71
2021/05/05 05:25:01;;;;;;;4.32;3.17;;;12.60;62.70;;;;;;5091829;28;20559;-71
2021/05/05 05:27:27;;;;;;;3.67;3.10;;;12.70;63.40;;;;;;5092958;28;20555;-72
2021/05/05 05:29:54;;;;;;;3.85;3.20;;;12.80;64.00;;;;;;5077851;28;20651;-72
2021/05/05 05:32:21;;;;;;;4.90;2.80;;;12.80;64.30;;;;;;5085403;28;20194;-71
2021/05/05 05:34:49;;;;;;;4.90;2.67;;;12.90;64.60;;;;;;5076821;28;20198;-71
2021/05/05 05:37:15;;;;;;;4.15;3.40;;;12.80;64.70;;;;;;5082012;28;20640;-71
2021/05/05 05:39:47;;;;;;;3.10;2.53;;;12.80;65.00;;;;;;5076273;28;20206;-72
2021/05/05 05:42:14;;;;;;;2.53;1.75;;;12.80;65.90;;;;;;5084138;28;20185;-71
2021/05/05 05:44:41;;;;;;;1.70;0.90;;;12.70;65.80;;;;;;5093731;28;20197;-72
2021/05/05 05:47:08;;;;;;;1.70;1.00;;;12.50;63.10;;;;;;5088953;28;20192;-71
2021/05/05 05:49:36;;;;;;;2.10;1.17;;;12.40;62.80;;;;;;5091834;28;20188;-72
2021/05/05 05:52:03;;;;;;;1.80;1.00;;;12.30;63.00;;;;;;5076031;28;20198;-72
2021/05/05 05:54:30;;;;;;;1.85;1.05;;;12.20;63.00;;;;;;5075711;28;20224;-71
2021/05/05 05:57:00;;;;;;;3.25;2.38;;;12.00;63.60;;;;;;5075607;28;20260;-72
2021/05/05 05:59:27;;;;;;;3.58;0.93;;;11.90;64.30;;;;;;5076258;28;20182;-71
2021/05/05 06:01:58;;;;;;;1.50;0.80;;;11.70;64.90;;;;;;5076122;28;20194;-71
2021/05/05 06:04:28;;;;;;;2.35;1.10;;;11.50;65.20;;;;;;5075695;28;20194;-71
2021/05/05 06:06:57;;;;;;;1.80;1.00;;;11.40;66.80;;;;;;5080374;28;20233;-71
2021/05/05 06:09:24;;;;;;;3.88;1.20;;;11.30;66.80;;;;;;5074903;28;20284;-73
2021/05/05 06:11:51;;;;;;;5.28;1.77;;;11.20;67.50;;;;;;5078656;28;20224;-72
2021/05/05 06:14:22;;;;;;;2.00;0.98;;;11.10;67.80;;;;;;5086839;28;20567;-71
2021/05/05 06:16:49;;;;;;;2.45;0.80;;;11.00;68.80;;;;;;5091666;28;20593;-71
2021/05/05 06:19:20;;;;;;;3.03;1.00;;;10.80;67.90;;;;;;5091972;28;20284;-73
2021/05/05 06:21:47;;;;;;;2.20;1.05;;;10.60;66.70;;;;;;5091952;28;20302;-70
2021/05/05 06:24:13;;;;;;;1.50;0.68;;;10.50;65.60;;;;;;5092196;28;20276;-71
2021/05/05 06:26:40;;;;;;;1.60;0.70;;;10.40;66.00;;;;;;5077932;28;20221;-71
2021/05/05 06:29:06;;;;;;;1.60;0.80;;;10.30;66.20;;;;;;5074767;28;20288;-72
2021/05/05 06:31:37;;;;;;;1.80;0.90;;;10.30;66.60;;;;;;5091427;28;20279;-72
2021/05/05 06:34:04;;;;;;;1.60;0.70;;;10.30;66.60;;;;;;5095165;28;20268;-73
2021/05/05 06:36:31;;;;;;;1.95;0.60;;;10.20;66.90;;;;;;5093579;28;20220;-71
2021/05/05 06:38:57;;;;;;;2.78;1.42;;;10.20;67.30;;;;;;5075103;28;22106;-72
2021/05/05 06:41:31;;;;;;;1.60;0.70;;;10.20;67.30;;;;;;5090531;28;21048;-70
2021/05/05 06:43:58;;;;;;;4.13;0.85;;;10.20;67.70;;;;;;5074210;28;20181;-70
2021/05/05 06:46:25;;;;;;;1.70;0.90;;;10.20;67.90;;;;;;5074336;28;20205;-69
2021/05/05 06:48:52;;;;;;;8.07;0.80;;;10.10;67.50;;;;;;5074889;28;20189;-71
2021/05/05 06:51:19;;;;;;;1.60;0.70;;;10.10;66.00;;;;;;5074680;28;20636;-70
2021/05/05 06:53:46;;;;;;;1.90;1.15;;;10.10;65.80;;;;;;5074322;28;20221;-71
2021/05/05 06:56:13;;;;;;;1.77;1.10;;;10.00;64.90;;;;;;5074367;28;20225;-71
2021/05/05 06:58:40;;;;;;;1.70;0.90;;;10.00;65.00;;;;;;5074872;28;20185;-69
2021/05/05 07:01:09;;;;;;;1.50;0.70;;;10.10;66.60;;;;;;5078866;28;20182;-70
2021/05/05 07:03:37;;;;;;;2.50;1.60;;;10.10;66.20;;;;;;5074411;28;20196;-70
2021/05/05 07:06:08;;;;;;;1.83;1.15;;;10.10;66.00;;;;;;5080847;28;20189;-69
2021/05/05 07:08:39;;;;;;;1.60;0.90;;;10.10;65.20;;;;;;5091926;28;20195;-70
2021/05/05 07:11:11;;;;;;;1.60;0.80;;;10.10;65.50;;;;;;5078166;28;20181;-70
2021/05/05 07:13:39;;;;;;;2.42;0.70;;;10.10;65.50;;;;;;5074323;28;20710;-69
2021/05/05 07:16:07;;;;;;;1.67;0.80;;;10.10;66.20;;;;;;5074490;28;20223;-71
2021/05/05 07:18:34;;;;;;;2.15;0.77;;;10.20;66.30;;;;;;5076579;28;20189;-69
2021/05/05 07:21:03;;;;;;;2.15;0.93;;;10.10;66.60;;;;;;5076449;28;20609;-69
2021/05/05 07:23:39;;;;;;;3.25;1.27;;;10.10;66.40;;;;;;5075819;28;20220;-70
2021/05/05 07:26:12;;;;;;;3.25;0.90;;;10.10;66.40;;;;;;5075075;28;20281;-69
2021/05/05 07:28:43;;;;;;;1.80;0.90;;;10.10;64.70;;;;;;5074910;28;20686;-70
2021/05/05 07:31:11;;;;;;;2.63;0.80;;;10.20;66.60;;;;;;5084025;28;20206;-70
2021/05/05 07:33:43;;;;;;;2.60;0.85;;;10.30;64.10;;;;;;5086071;28;20217;-69
2021/05/05 07:36:19;;;;;;;1.83;1.00;;;10.30;63.70;;;;;;5080325;28;20198;-69
2021/05/05 07:39:02;;;;;;;1.90;1.00;;;10.30;65.10;;;;;;5087135;28;20200;-70
2021/05/05 07:45:02;;;;;;;4.18;1.30;;;10.30;65.10;;;;;;5087576;28;20200;-71
2021/05/05 07:47:34;;;;;;;1.60;0.90;;;10.30;66.00;;;;;;5078706;28;20249;-70
2021/05/05 07:50:04;;;;;;;2.08;0.93;;;10.40;65.40;;;;;;5081681;28;20192;-70
2021/05/05 07:52:31;;;;;;;1.90;1.23;;;10.40;65.10;;;;;;5085337;28;20532;-70
2021/05/05 07:55:01;;;;;;;3.55;1.00;;;10.50;66.30;;;;;;5084561;28;20222;-70
2021/05/05 07:57:30;;;;;;;1.80;0.95;;;10.50;66.80;;;;;;5081747;28;20695;-71
2021/05/05 07:59:57;;;;;;;2.08;0.80;;;10.50;67.20;;;;;;5080960;28;20613;-70
2021/05/05 08:02:24;;;;;;;3.30;2.22;;;10.50;67.50;;;;;;5080149;28;20314;-70
2021/05/05 08:04:51;;;;;;;9.45;8.55;;;10.50;67.50;;;;;;5085145;28;20208;-70
2021/05/05 08:07:21;;;;;;;7.63;5.70;;;10.50;66.00;;;;;;5081449;28;20191;-70
2021/05/05 08:09:49;;;;;;;2.80;1.70;;;10.50;67.20;;;;;;5081382;28;20699;-70
2021/05/05 08:12:17;;;;;;;2.15;1.05;;;10.50;68.60;;;;;;5079797;28;20628;-69
2021/05/05 08:14:46;;;;;;;2.92;1.98;;;10.50;68.20;;;;;;5076932;28;20224;-71
2021/05/05 08:17:15;;;;;;;2.35;1.30;;;10.60;68.80;;;;;;5084617;28;20595;-70
2021/05/05 08:19:42;;;;;;;3.55;1.00;;;10.70;69.40;;;;;;5080549;28;20204;-70
2021/05/05 08:22:14;;;;;;;1.60;0.70;;;10.70;68.90;;;;;;5080761;28;20528;-70
2021/05/05 08:24:41;;;;;;;1.67;0.77;;;10.80;67.80;;;;;;5078079;28;20198;-71
2021/05/05 08:27:13;;;;;;;1.70;0.90;;;10.90;68.30;;;;;;5072153;28;20182;-70
2021/05/05 08:29:41;;;;;;;1.60;0.70;;;11.10;68.80;;;;;;5073700;28;20227;-70
2021/05/05 08:32:08;;;;;;;1.70;0.90;;;11.10;68.10;;;;;;5072077;28;20186;-71
2021/05/05 08:34:35;;;;;;;3.55;0.98;;;11.30;68.20;;;;;;5073252;28;20217;-71
2021/05/05 08:37:02;;;;;;;1.70;0.80;;;11.50;66.60;;;;;;5072882;28;20185;-70
2021/05/05 08:39:29;;;;;;;2.60;1.58;;;11.50;65.80;;;;;;5073118;28;20196;-71
2021/05/05 08:41:57;;;;;;;1.90;0.80;;;11.60;64.70;;;;;;5074069;28;20584;-70
2021/05/05 08:44:25;;;;;;;3.20;1.10;;;11.60;63.80;;;;;;5073268;28;20190;-70
2021/05/05 08:46:53;;;;;;;1.70;0.85;;;11.70;64.30;;;;;;5078776;28;20181;-70
2021/05/05 08:49:20;;;;;;;1.67;0.80;;;11.60;63.30;;;;;;5075497;28;20192;-71
2021/05/05 08:51:55;;;;;;;2.65;0.80;;;11.60;63.10;;;;;;5072335;28;20185;-70
2021/05/05 08:54:22;;;;;;;2.20;1.23;;;11.50;62.90;;;;;;5084414;28;20592;-70
2021/05/05 08:56:49;;;;;;;1.80;0.98;;;11.30;62.70;;;;;;5076158;28;20255;-70
2021/05/05 08:59:18;;;;;;;3.22;1.40;;;11.20;62.60;;;;;;5082327;28;20186;-70
2021/05/05 09:01:45;;;;;;;1.90;0.93;;;11.00;63.80;;;;;;5072527;28;20647;-70
2021/05/05 09:04:15;;;;;;;2.00;1.13;;;11.10;64.40;;;;;;5085934;28;20185;-70
2021/05/05 09:06:51;;;;;;;2.22;1.13;;;11.10;64.30;;;;;;5079522;28;20668;-70
2021/05/05 09:09:34;;;;;;;18.23;3.45;;;11.20;65.00;;;;;;5072417;28;20255;-70
2021/05/05 09:12:11;;;;;;;2.60;1.17;;;11.30;65.20;;;;;;5072084;28;20547;-71
2021/05/05 09:14:56;;;;;;;2.42;1.40;;;11.50;66.60;;;;;;5081941;28;20695;-70
2021/05/05 09:17:25;;;;;;;4.80;4.40;;;11.90;67.10;;;;;;5092663;28;20201;-71
2021/05/05 09:20:16;;;;;;;3.03;1.58;;;12.20;66.00;;;;;;5083473;28;20185;-70
2021/05/05 09:22:44;;;;;;;2.75;1.70;;;12.30;63.10;;;;;;5074597;28;20186;-69
2021/05/05 09:25:13;;;;;;;3.72;2.00;;;12.30;65.00;;;;;;5071854;28;20185;-70
2021/05/05 09:27:41;;;;;;;2.55;1.70;;;12.40;65.30;;;;;;5072181;28;20280;-70
2021/05/05 09:30:20;;;;;;;2.30;1.23;;;12.40;60.90;;;;;;5075517;28;20193;-71
2021/05/05 09:32:50;;;;;;;3.65;1.90;;;12.30;61.50;;;;;;5072303;28;20644;-71
2021/05/05 09:35:19;;;;;;;2.97;1.20;;;12.30;62.80;;;;;;5072548;28;20204;-70
2021/05/05 09:38:00;;;;;;;2.20;1.00;;;12.30;63.20;;;;;;5072209;28;20216;-70
2021/05/05 09:40:28;;;;;;;6.20;4.38;;;12.30;61.80;;;;;;5072470;28;20644;-70
2021/05/05 09:42:57;;;;;;;6.72;3.95;;;12.30;61.60;;;;;;5072638;28;20590;-70
2021/05/05 09:45:32;;;;;;;1.50;0.80;;;12.30;62.60;;;;;;5071465;28;20644;-70
2021/05/05 09:48:00;;;;;;;2.80;1.52;;;12.20;60.20;;;;;;5072144;28;20194;-70
2021/05/05 09:50:30;;;;;;;2.30;1.00;;;12.30;62.10;;;;;;5073107;28;20194;-70
2021/05/05 09:53:35;;;;;;;4.47;3.33;;;12.40;62.00;;;;;;5072332;28;20648;-70
2021/05/05 09:56:12;;;;;;;18.88;13.48;;;12.50;60.50;;;;;;5071693;28;20194;-71
2021/05/05 09:58:44;;;;;;;3.40;3.10;;;12.60;60.30;;;;;;5071948;28;20651;-73
2021/05/05 10:01:15;;;;;;;4.90;4.40;;;12.80;62.60;;;;;;5075888;28;20190;-71
2021/05/05 10:03:43;;;;;;;4.45;2.97;;;13.10;62.70;;;;;;5071959;28;20201;-71
2021/05/05 10:06:28;;;;;;;6.65;4.88;;;13.60;64.30;;;;;;5079269;28;20186;-71
2021/05/05 10:09:03;;;;;;;3.50;2.20;;;14.20;62.00;;;;;;5072893;28;20640;-72
2021/05/05 10:11:33;;;;;;;3.20;1.40;;;14.60;59.00;;;;;;5087027;28;20197;-71
2021/05/05 10:14:04;;;;;;;4.30;3.03;;;14.80;58.20;;;;;;5071875;28;20569;-71
2021/05/05 10:16:33;;;;;;;2.27;1.50;;;14.80;57.50;;;;;;5072255;28;20217;-73
2021/05/05 10:19:01;;;;;;;3.10;2.20;;;15.00;55.90;;;;;;5073418;28;20440;-72
2021/05/05 10:21:33;;;;;;;2.70;1.60;;;15.30;57.50;;;;;;5075777;28;20475;-71
2021/05/05 10:24:00;;;;;;;2.20;1.23;;;15.70;56.90;;;;;;5075800;28;20432;-71
2021/05/05 10:26:28;;;;;;;2.40;1.10;;;15.90;55.40;;;;;;5074893;28;20792;-72
2021/05/05 10:28:55;;;;;;;2.83;1.07;;;15.80;53.50;;;;;;5075363;28;20569;-71
2021/05/05 10:31:35;;;;;;;2.53;1.00;;;15.60;51.70;;;;;;5074742;28;20825;-72
2021/05/05 10:34:15;;;;;;;1.87;1.00;;;15.50;52.30;;;;;;5091256;28;20528;-71
2021/05/05 10:36:48;;;;;;;1.90;0.77;;;15.30;51.10;;;;;;5090505;28;20443;-72
2021/05/05 10:39:37;;;;;;;8.00;4.00;;;14.90;48.00;;;;;;5076791;28;20994;-71
2021/05/05 10:42:15;;;;;;;8.20;2.57;;;14.50;47.20;;;;;;5079628;28;20524;-71
2021/05/05 10:44:55;;;;;;;5.35;2.28;;;14.10;47.50;;;;;;5080613;28;20444;-71
2021/05/05 10:47:29;;;;;;;9.52;4.75;;;13.90;48.60;;;;;;5073370;28;20235;-71
2021/05/05 10:50:15;;;;;;;6.70;3.35;;;13.70;47.40;;;;;;5074868;28;20185;-71
2021/05/05 10:53:13;;;;;;;7.13;4.25;;;13.60;47.90;;;;;;5073782;28;20193;-71
2021/05/05 10:55:48;;;;;;;5.38;2.58;;;13.50;47.30;;;;;;5073699;28;20193;-72
2021/05/05 10:58:24;;;;;;;2.00;1.15;;;13.40;46.80;;;;;;5073726;28;20214;-71
2021/05/05 11:01:06;;;;;;;2.67;1.23;;;13.40;47.10;;;;;;5073016;28;20570;-71
2021/05/05 11:04:01;;;;;;;2.70;1.38;;;13.40;46.90;;;;;;5075693;28;20193;-71
2021/05/05 11:06:42;;;;;;;2.88;1.00;;;13.60;50.30;;;;;;5073478;28;20276;-71
2021/05/05 11:09:43;;;;;;;7.13;5.30;;;13.80;48.30;;;;;;5074080;28;20189;-73
2021/05/05 11:12:46;;;;;;;2.13;1.20;;;13.80;48.90;;;;;;5072598;28;20632;-71
2021/05/05 11:15:14;;;;;;;2.55;1.58;;;13.40;49.40;;;;;;5070081;28;20232;-71
2021/05/05 11:17:42;;;;;;;3.53;1.85;;;12.90;49.90;;;;;;5073169;28;20197;-72
2021/05/05 11:20:10;;;;;;;6.55;1.73;;;12.60;50.70;;;;;;5073115;28;20193;-72
2021/05/05 11:22:45;;;;;;;2.83;1.42;;;12.40;52.10;;;;;;5073335;28;20239;-71
2021/05/05 11:25:26;;;;;;;2.92;1.60;;;12.30;52.40;;;;;;5073159;28;20189;-71
2021/05/05 11:27:59;;;;;;;3.00;1.90;;;12.20;52.50;;;;;;5073176;28;20268;-71
2021/05/05 11:30:52;;;;;;;2.22;1.13;;;12.10;52.50;;;;;;5073206;28;20193;-71
2021/05/05 11:33:23;;;;;;;2.45;1.13;;;12.10;52.60;;;;;;5066859;28;20217;-71
2021/05/05 11:35:49;;;;;;;2.33;1.33;;;12.10;53.30;;;;;;5073603;28;20200;-71
2021/05/05 11:38:24;;;;;;;5.25;3.00;;;12.20;53.60;;;;;;5074149;28;20277;-71
2021/05/05 11:41:01;;;;;;;2.65;1.85;;;12.20;53.50;;;;;;5073706;28;20217;-71
2021/05/05 11:43:31;;;;;;;2.45;1.20;;;12.50;54.40;;;;;;5075898;28;20246;-71
2021/05/05 11:46:04;;;;;;;2.20;1.10;;;12.60;52.90;;;;;;5073768;28;20263;-70
2021/05/05 11:48:39;;;;;;;3.08;1.75;;;12.80;51.70;;;;;;5073892;28;20740;-71
2021/05/05 11:51:22;;;;;;;3.33;1.10;;;12.90;51.60;;;;;;5072788;28;20185;-73
2021/05/05 11:53:49;;;;;;;2.92;1.15;;;13.30;50.20;;;;;;5074359;28;20287;-71
2021/05/05 11:56:23;;;;;;;5.82;2.25;;;13.50;48.90;;;;;;5074606;28;20659;-72
2021/05/05 11:59:01;;;;;;;2.78;1.20;;;13.40;49.30;;;;;;5087599;28;20186;-70
2021/05/05 12:01:29;;;;;;;2.10;1.30;;;13.30;48.40;;;;;;5072720;28;20298;-70
2021/05/05 12:04:18;;;;;;;2.63;1.80;;;13.40;47.70;;;;;;5072641;28;20212;-69
2021/05/05 12:06:53;;;;;;;2.50;1.13;;;13.80;48.70;;;;;;5080438;28;20640;-69
2021/05/05 12:09:29;;;;;;;3.25;2.08;;;14.20;47.00;;;;;;5072004;28;20216;-70
2021/05/05 12:12:28;;;;;;;6.60;1.97;;;14.50;47.60;;;;;;5073005;28;20189;-70
2021/05/05 12:15:04;;;;;;;3.47;1.67;;;14.70;45.00;;;;;;5067438;28;21017;-71
2021/05/05 12:17:34;;;;;;;2.00;1.30;;;14.90;46.90;;;;;;5076415;28;20196;-71
2021/05/05 12:20:12;;;;;;;3.47;1.90;;;15.10;46.90;;;;;;5073362;28;20278;-71
2021/05/05 12:22:52;;;;;;;3.57;1.50;;;15.30;44.90;;;;;;5073345;28;20456;-71
2021/05/05 12:25:23;;;;;;;4.80;1.50;;;15.50;45.20;;;;;;5073003;28;20439;-72
2021/05/05 12:28:20;;;;;;;4.03;1.33;;;15.60;42.80;;;;;;5073257;28;20439;-71
2021/05/05 12:30:50;;;;;;;2.73;1.50;;;15.70;41.50;;;;;;5073707;28;20440;-71
2021/05/05 12:33:33;;;;;;;4.10;2.30;;;15.80;41.50;;;;;;5072748;28;20440;-71
2021/05/05 12:36:06;;;;;;;2.40;1.50;;;15.90;43.00;;;;;;5072913;28;20436;-71
2021/05/05 12:38:40;;;;;;;2.40;1.27;;;15.80;42.30;;;;;;5072195;28;20440;-72
2021/05/05 12:41:09;;;;;;;3.83;1.20;;;15.60;42.10;;;;;;5072890;28;20462;-72
2021/05/05 12:43:37;;;;;;;2.83;1.33;;;15.40;41.50;;;;;;5071798;28;20455;-72
2021/05/05 12:46:26;;;;;;;4.07;1.73;;;15.10;42.20;;;;;;5072760;28;20471;-73
2021/05/05 12:48:54;;;;;;;4.73;2.03;;;15.00;41.70;;;;;;5074571;28;20806;-71
2021/05/05 12:51:24;;;;;;;2.80;1.60;;;15.00;43.40;;;;;;5089475;28;20432;-72
2021/05/05 12:53:57;;;;;;;3.30;1.27;;;15.20;45.30;;;;;;5085331;28;20982;-71
2021/05/05 12:56:42;;;;;;;10.97;3.73;;;15.20;43.40;;;;;;5074058;28;20440;-71
2021/05/05 12:59:11;;;;;;;5.50;2.40;;;15.10;44.00;;;;;;5072052;28;20991;-71
2021/05/05 13:01:39;;;;;;;5.90;2.37;;;15.00;41.80;;;;;;5072854;28;20628;-71
2021/05/05 13:04:09;;;;;;;3.03;1.37;;;14.90;42.90;;;;;;5075004;28;20454;-71
2021/05/05 13:06:41;;;;;;;9.52;3.50;;;14.90;42.70;;;;;;5074056;28;20831;-71